sensor_id;sensor_type;location;lat;lon;timestamp;temperature;humidity
2867;DHT22;1441;48.886;8.728;2022-12-07T00:03:32;4.30;99.90
2867;DHT22;1441;48.886;8.728;2022-12-07T00:05:58;4.30;99.90
2867;DHT22;1441;48.886;8.728;2022-12-07T00:08:24;4.30;99.90
2867;DHT22;1441;48.886;8.728;2022-12-07T00:10:49;4.30;99.90
2867;DHT22;1441;48.886;8.728;2022-12-07T00:13:15;4.20;99.90
2867;DHT22;1441;48.886;8.728;2022-12-07T00:15:40;4.20;99.90
2867;DHT22;1441;48.886;8.728;2022-12-07T00:18:06;4.30;99.90
2867;DHT22;1441;48.886;8.728;2022-12-07T00:20:32;4.30;99.90
2867;DHT22;1441;48.886;8.728;2022-12-07T00:22:58;4.20;99.90
2867;DHT22;1441;48.886;8.728;2022-12-07T00:25:24;4.20;99.90
2867;DHT22;1441;48.886;8.728;2022-12-07T00:27:49;4.30;99.90
2867;DHT22;1441;48.886;8.728;2022-12-07T00:30:15;4.20;99.90
2867;DHT22;1441;48.886;8.728;2022-12-07T00:32:41;4.20;99.90
2867;DHT22;1441;48.886;8.728;2022-12-07T00:35:06;4.20;99.90
2867;DHT22;1441;48.886;8.728;2022-12-07T00:37:32;4.20;99.90
2867;DHT22;1441;48.886;8.728;2022-12-07T00:39:58;4.20;99.90
2867;DHT22;1441;48.886;8.728;2022-12-07T00:42:23;4.20;99.90
2867;DHT22;1441;48.886;8.728;2022-12-07T00:44:49;4.20;99.90
2867;DHT22;1441;48.886;8.728;2022-12-07T00:47:14;4.20;99.90
2867;DHT22;1441;48.886;8.728;2022-12-07T00:49:40;4.20;99.90
2867;DHT22;1441;48.886;8.728;2022-12-07T00:52:05;4.20;99.90
2867;DHT22;1441;48.886;8.728;2022-12-07T00:54:31;4.20;99.90
2867;DHT22;1441;48.886;8.728;2022-12-07T00:56:56;4.20;99.90
2867;DHT22;1441;48.886;8.728;2022-12-07T00:59:22;4.30;99.90
2867;DHT22;1441;48.886;8.728;2022-12-07T01:01:47;4.30;99.90
2867;DHT22;1441;48.886;8.728;2022-12-07T01:04:13;4.30;99.90
2867;DHT22;1441;48.886;8.728;2022-12-07T01:06:38;4.20;99.90
2867;DHT22;1441;48.886;8.728;2022-12-07T01:09:04;4.20;99.90
2867;DHT22;1441;48.886;8.728;2022-12-07T01:11:31;4.30;99.90
2867;DHT22;1441;48.886;8.728;2022-12-07T01:13:58;4.30;99.90
2867;DHT22;1441;48.886;8.728;2022-12-07T01:16:26;4.30;99.90
2867;DHT22;1441;48.886;8.728;2022-12-07T01:18:54;4.20;99.90
2867;DHT22;1441;48.886;8.728;2022-12-07T01:21:22;4.20;99.90
2867;DHT22;1441;48.886;8.728;2022-12-07T01:23:48;4.20;99.90
2867;DHT22;1441;48.886;8.728;2022-12-07T01:26:16;4.20;99.90
2867;DHT22;1441;48.886;8.728;2022-12-07T01:28:42;4.20;99.90
2867;DHT22;1441;48.886;8.728;2022-12-07T01:31:13;4.20;99.90
2867;DHT22;1441;48.886;8.728;2022-12-07T01:33:44;4.20;99.90
2867;DHT22;1441;48.886;8.728;2022-12-07T01:38:46;4.20;99.90
2867;DHT22;1441;48.886;8.728;2022-12-07T01:41:12;4.20;99.90
2867;DHT22;1441;48.886;8.728;2022-12-07T01:44:17;4.20;99.90
2867;DHT22;1441;48.886;8.728;2022-12-07T01:54:31;4.20;99.90
2867;DHT22;1441;48.886;8.728;2022-12-07T01:56:58;4.10;99.90
2867;DHT22;1441;48.886;8.728;2022-12-07T01:59:25;4.10;99.90
2867;DHT22;1441;48.886;8.728;2022-12-07T02:01:52;4.10;99.90
2867;DHT22;1441;48.886;8.728;2022-12-07T02:04:19;4.00;99.90
2867;DHT22;1441;48.886;8.728;2022-12-07T02:06:45;4.00;99.90
2867;DHT22;1441;48.886;8.728;2022-12-07T02:09:12;4.00;99.90
2867;DHT22;1441;48.886;8.728;2022-12-07T02:11:38;4.00;99.90
2867;DHT22;1441;48.886;8.728;2022-12-07T02:14:04;4.00;99.90
2867;DHT22;1441;48.886;8.728;2022-12-07T02:16:38;4.00;99.90
2867;DHT22;1441;48.886;8.728;2022-12-07T02:19:39;4.00;99.90
2867;DHT22;1441;48.886;8.728;2022-12-07T02:28:36;4.00;99.90
2867;DHT22;1441;48.886;8.728;2022-12-07T02:31:10;3.90;99.90
2867;DHT22;1441;48.886;8.728;2022-12-07T02:34:05;3.80;99.90
2867;DHT22;1441;48.886;8.728;2022-12-07T02:36:31;3.90;99.90
2867;DHT22;1441;48.886;8.728;2022-12-07T02:39:08;3.90;99.90
2867;DHT22;1441;48.886;8.728;2022-12-07T02:41:48;3.90;99.90
2867;DHT22;1441;48.886;8.728;2022-12-07T02:44:17;3.80;99.90
2867;DHT22;1441;48.886;8.728;2022-12-07T02:46:57;3.80;99.90
2867;DHT22;1441;48.886;8.728;2022-12-07T02:49:26;3.80;99.90
2867;DHT22;1441;48.886;8.728;2022-12-07T02:51:53;3.80;99.90
2867;DHT22;1441;48.886;8.728;2022-12-07T02:54:20;3.70;99.90
2867;DHT22;1441;48.886;8.728;2022-12-07T03:00:02;3.60;99.90
2867;DHT22;1441;48.886;8.728;2022-12-07T03:02:38;3.70;99.90
2867;DHT22;1441;48.886;8.728;2022-12-07T03:11:08;3.70;99.90
2867;DHT22;1441;48.886;8.728;2022-12-07T03:16:21;3.70;99.90
2867;DHT22;1441;48.886;8.728;2022-12-07T03:21:32;3.70;99.90
2867;DHT22;1441;48.886;8.728;2022-12-07T03:24:02;3.70;99.90
2867;DHT22;1441;48.886;8.728;2022-12-07T03:26:36;3.70;99.90
2867;DHT22;1441;48.886;8.728;2022-12-07T03:29:26;3.70;99.90
2867;DHT22;1441;48.886;8.728;2022-12-07T03:32:00;3.80;99.90
2867;DHT22;1441;48.886;8.728;2022-12-07T03:34:36;4.20;99.90
2867;DHT22;1441;48.886;8.728;2022-12-07T03:37:08;4.20;99.90
2867;DHT22;1441;48.886;8.728;2022-12-07T03:39:37;4.00;99.90
2867;DHT22;1441;48.886;8.728;2022-12-07T03:42:06;3.90;99.90
2867;DHT22;1441;48.886;8.728;2022-12-07T03:44:34;3.80;99.90
2867;DHT22;1441;48.886;8.728;2022-12-07T03:47:04;3.80;99.90
2867;DHT22;1441;48.886;8.728;2022-12-07T03:49:59;3.80;99.90
2867;DHT22;1441;48.886;8.728;2022-12-07T03:52:46;3.90;99.90
2867;DHT22;1441;48.886;8.728;2022-12-07T03:55:26;4.00;99.50
2867;DHT22;1441;48.886;8.728;2022-12-07T03:57:56;4.10;98.60
2867;DHT22;1441;48.886;8.728;2022-12-07T04:00:23;4.00;99.30
2867;DHT22;1441;48.886;8.728;2022-12-07T04:02:52;3.90;99.80
2867;DHT22;1441;48.886;8.728;2022-12-07T04:05:18;4.20;98.70
2867;DHT22;1441;48.886;8.728;2022-12-07T04:07:44;4.20;98.10
2867;DHT22;1441;48.886;8.728;2022-12-07T04:10:10;4.10;98.70
2867;DHT22;1441;48.886;8.728;2022-12-07T04:12:35;4.00;99.10
2867;DHT22;1441;48.886;8.728;2022-12-07T04:15:01;4.00;99.60
2867;DHT22;1441;48.886;8.728;2022-12-07T04:17:26;3.90;99.10
2867;DHT22;1441;48.886;8.728;2022-12-07T04:19:52;3.80;99.10
2867;DHT22;1441;48.886;8.728;2022-12-07T04:22:17;3.60;99.50
2867;DHT22;1441;48.886;8.728;2022-12-07T04:24:43;3.50;99.70
2867;DHT22;1441;48.886;8.728;2022-12-07T04:27:08;3.50;99.90
2867;DHT22;1441;48.886;8.728;2022-12-07T04:29:34;3.50;99.90
2867;DHT22;1441;48.886;8.728;2022-12-07T04:32:00;3.50;99.90
2867;DHT22;1441;48.886;8.728;2022-12-07T04:34:25;3.50;99.90
2867;DHT22;1441;48.886;8.728;2022-12-07T04:36:51;3.40;99.90
2867;DHT22;1441;48.886;8.728;2022-12-07T04:39:28;3.40;99.90
2867;DHT22;1441;48.886;8.728;2022-12-07T04:41:54;3.40;99.90
2867;DHT22;1441;48.886;8.728;2022-12-07T04:44:21;3.40;99.90
2867;DHT22;1441;48.886;8.728;2022-12-07T04:46:48;3.30;99.90
2867;DHT22;1441;48.886;8.728;2022-12-07T04:49:15;3.30;99.90
2867;DHT22;1441;48.886;8.728;2022-12-07T04:51:42;3.20;99.90
2867;DHT22;1441;48.886;8.728;2022-12-07T04:54:08;3.20;99.90
2867;DHT22;1441;48.886;8.728;2022-12-07T04:56:34;3.20;99.90
2867;DHT22;1441;48.886;8.728;2022-12-07T04:59:00;3.20;99.90
2867;DHT22;1441;48.886;8.728;2022-12-07T05:01:26;3.20;99.90
2867;DHT22;1441;48.886;8.728;2022-12-07T05:03:52;3.20;99.90
2867;DHT22;1441;48.886;8.728;2022-12-07T05:06:17;3.20;99.90
2867;DHT22;1441;48.886;8.728;2022-12-07T05:08:43;3.10;99.90
2867;DHT22;1441;48.886;8.728;2022-12-07T05:11:09;3.10;99.90
2867;DHT22;1441;48.886;8.728;2022-12-07T05:13:55;3.10;99.90
2867;DHT22;1441;48.886;8.728;2022-12-07T05:16:21;3.10;99.90
2867;DHT22;1441;48.886;8.728;2022-12-07T05:18:47;3.10;99.90
2867;DHT22;1441;48.886;8.728;2022-12-07T05:21:12;3.10;99.90
2867;DHT22;1441;48.886;8.728;2022-12-07T05:23:38;3.10;99.90
2867;DHT22;1441;48.886;8.728;2022-12-07T05:26:03;3.20;99.90
2867;DHT22;1441;48.886;8.728;2022-12-07T05:28:29;3.20;99.90
2867;DHT22;1441;48.886;8.728;2022-12-07T05:30:54;3.20;99.90
2867;DHT22;1441;48.886;8.728;2022-12-07T05:33:20;3.10;99.90
2867;DHT22;1441;48.886;8.728;2022-12-07T05:35:45;3.20;99.90
2867;DHT22;1441;48.886;8.728;2022-12-07T05:38:11;3.10;99.90
2867;DHT22;1441;48.886;8.728;2022-12-07T05:40:37;3.10;99.90
2867;DHT22;1441;48.886;8.728;2022-12-07T05:43:02;3.10;99.90
2867;DHT22;1441;48.886;8.728;2022-12-07T05:45:28;3.20;99.90
2867;DHT22;1441;48.886;8.728;2022-12-07T05:47:53;3.20;99.90
2867;DHT22;1441;48.886;8.728;2022-12-07T05:50:19;3.20;99.90
2867;DHT22;1441;48.886;8.728;2022-12-07T05:52:44;3.20;99.90
2867;DHT22;1441;48.886;8.728;2022-12-07T05:55:10;3.20;99.90
2867;DHT22;1441;48.886;8.728;2022-12-07T05:57:36;3.20;99.90
2867;DHT22;1441;48.886;8.728;2022-12-07T06:00:02;3.20;99.90
2867;DHT22;1441;48.886;8.728;2022-12-07T06:02:28;3.30;99.90
2867;DHT22;1441;48.886;8.728;2022-12-07T06:04:53;3.20;99.90
2867;DHT22;1441;48.886;8.728;2022-12-07T06:07:19;3.20;99.90
2867;DHT22;1441;48.886;8.728;2022-12-07T06:09:44;3.20;99.90
2867;DHT22;1441;48.886;8.728;2022-12-07T06:12:11;3.20;99.90
2867;DHT22;1441;48.886;8.728;2022-12-07T06:14:55;3.30;99.90
2867;DHT22;1441;48.886;8.728;2022-12-07T06:17:21;3.30;99.90
2867;DHT22;1441;48.886;8.728;2022-12-07T06:19:46;3.20;99.90
2867;DHT22;1441;48.886;8.728;2022-12-07T06:22:12;3.30;99.90
2867;DHT22;1441;48.886;8.728;2022-12-07T06:24:38;3.30;99.90
2867;DHT22;1441;48.886;8.728;2022-12-07T06:27:04;3.30;99.90
2867;DHT22;1441;48.886;8.728;2022-12-07T06:29:30;3.30;99.80
2867;DHT22;1441;48.886;8.728;2022-12-07T06:31:56;3.30;99.50
2867;DHT22;1441;48.886;8.728;2022-12-07T06:34:23;3.20;99.50
2867;DHT22;1441;48.886;8.728;2022-12-07T06:36:49;3.30;99.10
2867;DHT22;1441;48.886;8.728;2022-12-07T06:39:21;3.30;98.50
2867;DHT22;1441;48.886;8.728;2022-12-07T06:41:47;3.30;98.40
2867;DHT22;1441;48.886;8.728;2022-12-07T06:44:12;3.40;97.30
2867;DHT22;1441;48.886;8.728;2022-12-07T06:46:38;3.40;97.60
2867;DHT22;1441;48.886;8.728;2022-12-07T06:49:04;3.40;97.00
2867;DHT22;1441;48.886;8.728;2022-12-07T06:51:31;3.30;96.10
2867;DHT22;1441;48.886;8.728;2022-12-07T06:53:56;3.40;95.80
2867;DHT22;1441;48.886;8.728;2022-12-07T06:56:22;3.40;95.50
2867;DHT22;1441;48.886;8.728;2022-12-07T06:58:49;3.40;95.70
2867;DHT22;1441;48.886;8.728;2022-12-07T07:01:16;3.50;94.90
2867;DHT22;1441;48.886;8.728;2022-12-07T07:03:43;3.40;95.00
2867;DHT22;1441;48.886;8.728;2022-12-07T07:06:09;3.40;95.70
2867;DHT22;1441;48.886;8.728;2022-12-07T07:08:35;3.40;95.70
2867;DHT22;1441;48.886;8.728;2022-12-07T07:11:01;3.40;96.60
2867;DHT22;1441;48.886;8.728;2022-12-07T07:13:27;3.40;96.00
2867;DHT22;1441;48.886;8.728;2022-12-07T07:15:53;3.50;96.10
2867;DHT22;1441;48.886;8.728;2022-12-07T07:18:19;3.50;96.40
2867;DHT22;1441;48.886;8.728;2022-12-07T07:20:45;3.50;96.30
2867;DHT22;1441;48.886;8.728;2022-12-07T07:23:10;3.40;96.30
2867;DHT22;1441;48.886;8.728;2022-12-07T07:25:36;3.50;97.10
2867;DHT22;1441;48.886;8.728;2022-12-07T07:28:02;3.50;97.10
2867;DHT22;1441;48.886;8.728;2022-12-07T07:30:28;3.40;97.00
2867;DHT22;1441;48.886;8.728;2022-12-07T07:32:58;3.40;96.70
2867;DHT22;1441;48.886;8.728;2022-12-07T07:35:24;3.50;96.30
2867;DHT22;1441;48.886;8.728;2022-12-07T07:37:50;3.40;96.50
2867;DHT22;1441;48.886;8.728;2022-12-07T07:40:15;3.50;96.10
2867;DHT22;1441;48.886;8.728;2022-12-07T07:42:41;3.50;96.40
2867;DHT22;1441;48.886;8.728;2022-12-07T07:45:07;3.50;96.70
2867;DHT22;1441;48.886;8.728;2022-12-07T07:47:33;3.50;96.30
2867;DHT22;1441;48.886;8.728;2022-12-07T07:49:59;3.50;96.70
2867;DHT22;1441;48.886;8.728;2022-12-07T07:52:24;3.50;96.50
2867;DHT22;1441;48.886;8.728;2022-12-07T07:54:50;3.50;96.70
2867;DHT22;1441;48.886;8.728;2022-12-07T07:57:16;3.60;96.60
2867;DHT22;1441;48.886;8.728;2022-12-07T07:59:42;3.60;96.40
2867;DHT22;1441;48.886;8.728;2022-12-07T08:02:14;3.70;96.20
2867;DHT22;1441;48.886;8.728;2022-12-07T08:04:39;3.60;96.30
2867;DHT22;1441;48.886;8.728;2022-12-07T08:07:05;3.70;96.40
2867;DHT22;1441;48.886;8.728;2022-12-07T08:09:31;3.70;96.60
2867;DHT22;1441;48.886;8.728;2022-12-07T08:11:57;3.70;96.40
2867;DHT22;1441;48.886;8.728;2022-12-07T08:14:23;3.80;96.30
2867;DHT22;1441;48.886;8.728;2022-12-07T08:16:49;3.80;96.10
2867;DHT22;1441;48.886;8.728;2022-12-07T08:19:15;3.80;96.20
2867;DHT22;1441;48.886;8.728;2022-12-07T08:21:40;3.90;96.50
2867;DHT22;1441;48.886;8.728;2022-12-07T08:24:06;4.00;96.10
2867;DHT22;1441;48.886;8.728;2022-12-07T08:26:32;4.00;96.40
2867;DHT22;1441;48.886;8.728;2022-12-07T08:28:59;4.10;96.00
2867;DHT22;1441;48.886;8.728;2022-12-07T08:31:24;4.10;96.20
2867;DHT22;1441;48.886;8.728;2022-12-07T08:33:50;4.10;96.40
2867;DHT22;1441;48.886;8.728;2022-12-07T08:36:16;4.20;96.80
2867;DHT22;1441;48.886;8.728;2022-12-07T08:38:42;4.20;96.80
2867;DHT22;1441;48.886;8.728;2022-12-07T08:41:08;4.30;96.50
2867;DHT22;1441;48.886;8.728;2022-12-07T08:43:35;4.40;95.90
2867;DHT22;1441;48.886;8.728;2022-12-07T08:46:15;4.40;96.40
2867;DHT22;1441;48.886;8.728;2022-12-07T08:48:45;4.40;96.00
2867;DHT22;1441;48.886;8.728;2022-12-07T08:51:12;4.40;96.10
2867;DHT22;1441;48.886;8.728;2022-12-07T08:53:39;4.40;96.10
2867;DHT22;1441;48.886;8.728;2022-12-07T08:56:05;4.50;96.60
2867;DHT22;1441;48.886;8.728;2022-12-07T08:58:33;4.40;96.60
2867;DHT22;1441;48.886;8.728;2022-12-07T09:00:59;4.40;96.80
2867;DHT22;1441;48.886;8.728;2022-12-07T09:03:25;4.40;96.60
2867;DHT22;1441;48.886;8.728;2022-12-07T09:05:50;4.50;96.50
2867;DHT22;1441;48.886;8.728;2022-12-07T09:08:17;4.40;96.40
2867;DHT22;1441;48.886;8.728;2022-12-07T09:10:43;4.40;96.70
2867;DHT22;1441;48.886;8.728;2022-12-07T09:13:08;4.40;97.10
2867;DHT22;1441;48.886;8.728;2022-12-07T09:15:34;4.30;98.20
2867;DHT22;1441;48.886;8.728;2022-12-07T09:17:59;4.30;98.90
2867;DHT22;1441;48.886;8.728;2022-12-07T09:20:25;4.30;99.50
2867;DHT22;1441;48.886;8.728;2022-12-07T09:22:50;4.20;99.90
2867;DHT22;1441;48.886;8.728;2022-12-07T09:25:16;4.20;99.90
2867;DHT22;1441;48.886;8.728;2022-12-07T09:27:42;4.20;99.90
2867;DHT22;1441;48.886;8.728;2022-12-07T09:30:08;4.20;99.90
2867;DHT22;1441;48.886;8.728;2022-12-07T09:32:33;4.20;99.90
2867;DHT22;1441;48.886;8.728;2022-12-07T09:34:59;4.30;99.90
2867;DHT22;1441;48.886;8.728;2022-12-07T09:37:24;4.20;99.90
2867;DHT22;1441;48.886;8.728;2022-12-07T09:39:50;4.20;99.90
2867;DHT22;1441;48.886;8.728;2022-12-07T09:42:37;4.20;99.90
2867;DHT22;1441;48.886;8.728;2022-12-07T09:45:06;4.20;99.90
2867;DHT22;1441;48.886;8.728;2022-12-07T09:47:33;4.40;99.90
2867;DHT22;1441;48.886;8.728;2022-12-07T09:50:12;4.40;99.90
2867;DHT22;1441;48.886;8.728;2022-12-07T09:52:38;4.30;99.90
2867;DHT22;1441;48.886;8.728;2022-12-07T09:55:10;4.30;99.90
2867;DHT22;1441;48.886;8.728;2022-12-07T09:57:36;4.20;99.90
2867;DHT22;1441;48.886;8.728;2022-12-07T10:00:22;4.20;99.90
2867;DHT22;1441;48.886;8.728;2022-12-07T10:02:59;4.20;99.90
2867;DHT22;1441;48.886;8.728;2022-12-07T10:05:41;4.20;99.90
2867;DHT22;1441;48.886;8.728;2022-12-07T10:08:11;4.10;99.90
2867;DHT22;1441;48.886;8.728;2022-12-07T10:10:37;4.10;99.90
2867;DHT22;1441;48.886;8.728;2022-12-07T10:13:12;4.20;99.90
2867;DHT22;1441;48.886;8.728;2022-12-07T10:15:52;4.10;99.90
2867;DHT22;1441;48.886;8.728;2022-12-07T10:18:35;4.10;99.90
2867;DHT22;1441;48.886;8.728;2022-12-07T10:23:35;4.00;99.90
2867;DHT22;1441;48.886;8.728;2022-12-07T10:26:21;4.00;99.90
2867;DHT22;1441;48.886;8.728;2022-12-07T10:28:51;4.00;99.90
2867;DHT22;1441;48.886;8.728;2022-12-07T10:31:19;4.00;99.90
2867;DHT22;1441;48.886;8.728;2022-12-07T10:33:53;4.00;99.90
2867;DHT22;1441;48.886;8.728;2022-12-07T10:38:51;4.10;99.90
2867;DHT22;1441;48.886;8.728;2022-12-07T10:41:17;4.10;99.90
2867;DHT22;1441;48.886;8.728;2022-12-07T10:44:02;4.10;99.90
2867;DHT22;1441;48.886;8.728;2022-12-07T10:46:49;4.10;99.90
2867;DHT22;1441;48.886;8.728;2022-12-07T10:49:48;4.20;99.90
2867;DHT22;1441;48.886;8.728;2022-12-07T11:00:23;4.20;99.90
2867;DHT22;1441;48.886;8.728;2022-12-07T11:05:47;4.20;99.90
2867;DHT22;1441;48.886;8.728;2022-12-07T11:10:55;4.20;99.90
2867;DHT22;1441;48.886;8.728;2022-12-07T11:13:40;4.20;99.90
2867;DHT22;1441;48.886;8.728;2022-12-07T11:24:17;4.40;99.90
2867;DHT22;1441;48.886;8.728;2022-12-07T11:30:06;4.40;99.90
2867;DHT22;1441;48.886;8.728;2022-12-07T11:35:31;4.20;99.90
2867;DHT22;1441;48.886;8.728;2022-12-07T11:38:09;4.30;99.90
2867;DHT22;1441;48.886;8.728;2022-12-07T11:40:36;4.30;99.90
2867;DHT22;1441;48.886;8.728;2022-12-07T11:43:27;4.30;99.90
2867;DHT22;1441;48.886;8.728;2022-12-07T11:46:09;4.40;99.90
2867;DHT22;1441;48.886;8.728;2022-12-07T11:48:46;4.30;99.90
2867;DHT22;1441;48.886;8.728;2022-12-07T11:51:16;4.30;99.90
2867;DHT22;1441;48.886;8.728;2022-12-07T11:53:53;4.30;99.90
2867;DHT22;1441;48.886;8.728;2022-12-07T11:56:26;4.40;99.90
2867;DHT22;1441;48.886;8.728;2022-12-07T11:59:00;4.30;99.90
2867;DHT22;1441;48.886;8.728;2022-12-07T12:06:36;4.50;99.90
2867;DHT22;1441;48.886;8.728;2022-12-07T12:09:17;4.50;99.90
2867;DHT22;1441;48.886;8.728;2022-12-07T12:14:59;4.50;99.90
2867;DHT22;1441;48.886;8.728;2022-12-07T12:20:31;4.40;99.90
2867;DHT22;1441;48.886;8.728;2022-12-07T12:27:52;4.40;99.90
2867;DHT22;1441;48.886;8.728;2022-12-07T12:30:39;4.50;99.90
2867;DHT22;1441;48.886;8.728;2022-12-07T12:33:16;4.40;99.90
2867;DHT22;1441;48.886;8.728;2022-12-07T12:35:45;4.60;99.90
2867;DHT22;1441;48.886;8.728;2022-12-07T12:40:50;4.50;99.90
2867;DHT22;1441;48.886;8.728;2022-12-07T12:51:41;4.40;99.90
2867;DHT22;1441;48.886;8.728;2022-12-07T12:54:15;4.40;99.90
2867;DHT22;1441;48.886;8.728;2022-12-07T12:57:09;4.40;99.90
2867;DHT22;1441;48.886;8.728;2022-12-07T13:00:00;4.40;99.90
2867;DHT22;1441;48.886;8.728;2022-12-07T13:15:36;4.60;99.90
2867;DHT22;1441;48.886;8.728;2022-12-07T13:18:25;4.60;99.90
2867;DHT22;1441;48.886;8.728;2022-12-07T13:29:17;4.70;99.90
2867;DHT22;1441;48.886;8.728;2022-12-07T13:31:56;4.70;99.90
2867;DHT22;1441;48.886;8.728;2022-12-07T13:34:38;4.70;99.90
2867;DHT22;1441;48.886;8.728;2022-12-07T13:37:23;4.70;99.90
2867;DHT22;1441;48.886;8.728;2022-12-07T13:39:55;4.60;99.90
2867;DHT22;1441;48.886;8.728;2022-12-07T13:42:27;4.60;99.90
2867;DHT22;1441;48.886;8.728;2022-12-07T13:44:53;4.60;99.90
2867;DHT22;1441;48.886;8.728;2022-12-07T13:47:48;4.50;99.90
2867;DHT22;1441;48.886;8.728;2022-12-07T13:52:55;4.40;99.90
2867;DHT22;1441;48.886;8.728;2022-12-07T13:55:21;4.30;99.90
2867;DHT22;1441;48.886;8.728;2022-12-07T13:57:50;4.30;99.90
2867;DHT22;1441;48.886;8.728;2022-12-07T14:00:19;4.30;99.90
2867;DHT22;1441;48.886;8.728;2022-12-07T14:03:00;4.30;99.90
2867;DHT22;1441;48.886;8.728;2022-12-07T14:05:34;4.30;99.90
2867;DHT22;1441;48.886;8.728;2022-12-07T14:12:57;4.40;99.90
2867;DHT22;1441;48.886;8.728;2022-12-07T14:15:34;4.40;99.90
2867;DHT22;1441;48.886;8.728;2022-12-07T14:18:01;4.40;99.90
2867;DHT22;1441;48.886;8.728;2022-12-07T14:20:39;4.40;99.90
2867;DHT22;1441;48.886;8.728;2022-12-07T14:23:24;4.30;99.90
2867;DHT22;1441;48.886;8.728;2022-12-07T14:25:53;4.30;99.90
2867;DHT22;1441;48.886;8.728;2022-12-07T14:28:45;4.20;99.90
2867;DHT22;1441;48.886;8.728;2022-12-07T14:31:12;4.30;99.90
2867;DHT22;1441;48.886;8.728;2022-12-07T14:33:39;4.20;99.90
2867;DHT22;1441;48.886;8.728;2022-12-07T14:36:05;4.20;99.90
2867;DHT22;1441;48.886;8.728;2022-12-07T14:38:31;4.10;99.90
2867;DHT22;1441;48.886;8.728;2022-12-07T14:40:57;4.20;99.90
2867;DHT22;1441;48.886;8.728;2022-12-07T14:43:42;4.10;99.90
2867;DHT22;1441;48.886;8.728;2022-12-07T14:46:09;4.10;99.90
2867;DHT22;1441;48.886;8.728;2022-12-07T14:48:34;4.10;99.90
2867;DHT22;1441;48.886;8.728;2022-12-07T14:51:00;4.10;99.90
2867;DHT22;1441;48.886;8.728;2022-12-07T14:53:35;4.20;99.90
2867;DHT22;1441;48.886;8.728;2022-12-07T14:56:02;4.10;99.90
2867;DHT22;1441;48.886;8.728;2022-12-07T14:58:27;4.10;99.90
2867;DHT22;1441;48.886;8.728;2022-12-07T15:00:53;4.10;99.90
2867;DHT22;1441;48.886;8.728;2022-12-07T15:03:18;4.10;99.90
2867;DHT22;1441;48.886;8.728;2022-12-07T15:05:44;4.10;99.90
2867;DHT22;1441;48.886;8.728;2022-12-07T15:08:13;4.10;99.90
2867;DHT22;1441;48.886;8.728;2022-12-07T15:10:39;4.10;99.90
2867;DHT22;1441;48.886;8.728;2022-12-07T15:13:05;4.10;99.90
2867;DHT22;1441;48.886;8.728;2022-12-07T15:15:52;4.00;99.90
2867;DHT22;1441;48.886;8.728;2022-12-07T15:18:19;3.90;99.90
2867;DHT22;1441;48.886;8.728;2022-12-07T15:20:46;3.90;99.90
2867;DHT22;1441;48.886;8.728;2022-12-07T15:23:12;4.00;99.90
2867;DHT22;1441;48.886;8.728;2022-12-07T15:25:45;4.00;99.90
2867;DHT22;1441;48.886;8.728;2022-12-07T15:28:11;4.00;99.90
2867;DHT22;1441;48.886;8.728;2022-12-07T15:30:38;4.00;99.90
2867;DHT22;1441;48.886;8.728;2022-12-07T15:33:04;3.90;99.90
2867;DHT22;1441;48.886;8.728;2022-12-07T15:35:30;3.90;99.90
2867;DHT22;1441;48.886;8.728;2022-12-07T15:37:55;3.80;99.90
2867;DHT22;1441;48.886;8.728;2022-12-07T15:40:21;3.80;99.90
2867;DHT22;1441;48.886;8.728;2022-12-07T15:42:47;3.80;99.90
2867;DHT22;1441;48.886;8.728;2022-12-07T15:45:12;3.80;99.90
2867;DHT22;1441;48.886;8.728;2022-12-07T15:47:43;3.80;99.90
2867;DHT22;1441;48.886;8.728;2022-12-07T15:50:14;3.80;99.90
2867;DHT22;1441;48.886;8.728;2022-12-07T15:52:40;3.80;99.90
2867;DHT22;1441;48.886;8.728;2022-12-07T15:55:07;3.70;99.90
2867;DHT22;1441;48.886;8.728;2022-12-07T15:57:34;3.70;99.90
2867;DHT22;1441;48.886;8.728;2022-12-07T16:00:00;3.70;99.90
2867;DHT22;1441;48.886;8.728;2022-12-07T16:02:26;3.70;99.90
2867;DHT22;1441;48.886;8.728;2022-12-07T16:04:52;3.70;99.90
2867;DHT22;1441;48.886;8.728;2022-12-07T16:07:18;3.80;99.90
2867;DHT22;1441;48.886;8.728;2022-12-07T16:09:45;3.80;99.90
2867;DHT22;1441;48.886;8.728;2022-12-07T16:12:11;3.80;99.90
2867;DHT22;1441;48.886;8.728;2022-12-07T16:14:37;3.70;99.90
2867;DHT22;1441;48.886;8.728;2022-12-07T16:17:04;3.70;99.90
2867;DHT22;1441;48.886;8.728;2022-12-07T16:19:30;3.70;99.90
2867;DHT22;1441;48.886;8.728;2022-12-07T16:21:56;3.70;99.90
2867;DHT22;1441;48.886;8.728;2022-12-07T16:24:21;3.70;99.90
2867;DHT22;1441;48.886;8.728;2022-12-07T16:26:47;3.70;99.90
2867;DHT22;1441;48.886;8.728;2022-12-07T16:29:14;3.60;99.90
2867;DHT22;1441;48.886;8.728;2022-12-07T16:31:39;3.70;99.90
2867;DHT22;1441;48.886;8.728;2022-12-07T16:34:06;3.70;99.90
2867;DHT22;1441;48.886;8.728;2022-12-07T16:36:31;3.70;99.90
2867;DHT22;1441;48.886;8.728;2022-12-07T16:39:00;3.70;99.90
2867;DHT22;1441;48.886;8.728;2022-12-07T16:41:26;3.70;99.90
2867;DHT22;1441;48.886;8.728;2022-12-07T16:43:52;3.70;99.90
2867;DHT22;1441;48.886;8.728;2022-12-07T16:46:18;3.80;99.90
2867;DHT22;1441;48.886;8.728;2022-12-07T16:48:43;3.70;99.90
2867;DHT22;1441;48.886;8.728;2022-12-07T16:51:11;3.70;99.90
2867;DHT22;1441;48.886;8.728;2022-12-07T16:53:38;3.70;99.90
2867;DHT22;1441;48.886;8.728;2022-12-07T16:56:10;3.60;99.90
2867;DHT22;1441;48.886;8.728;2022-12-07T16:58:36;3.60;99.90
2867;DHT22;1441;48.886;8.728;2022-12-07T17:01:09;3.60;99.90
2867;DHT22;1441;48.886;8.728;2022-12-07T17:03:35;3.60;99.90
2867;DHT22;1441;48.886;8.728;2022-12-07T17:06:01;3.50;99.90
2867;DHT22;1441;48.886;8.728;2022-12-07T17:08:26;3.50;99.90
2867;DHT22;1441;48.886;8.728;2022-12-07T17:10:52;3.50;99.90
2867;DHT22;1441;48.886;8.728;2022-12-07T17:13:17;3.50;99.90
2867;DHT22;1441;48.886;8.728;2022-12-07T17:16:05;3.50;99.90
2867;DHT22;1441;48.886;8.728;2022-12-07T17:18:32;3.40;99.90
2867;DHT22;1441;48.886;8.728;2022-12-07T17:21:06;3.50;99.90
2867;DHT22;1441;48.886;8.728;2022-12-07T17:23:32;3.60;99.90
2867;DHT22;1441;48.886;8.728;2022-12-07T17:26:07;3.60;99.90
2867;DHT22;1441;48.886;8.728;2022-12-07T17:28:33;3.50;99.90
2867;DHT22;1441;48.886;8.728;2022-12-07T17:30:59;3.50;99.90
2867;DHT22;1441;48.886;8.728;2022-12-07T17:33:24;3.50;99.90
2867;DHT22;1441;48.886;8.728;2022-12-07T17:35:50;3.50;99.90
2867;DHT22;1441;48.886;8.728;2022-12-07T17:38:16;3.60;99.90
2867;DHT22;1441;48.886;8.728;2022-12-07T17:40:41;3.50;99.90
2867;DHT22;1441;48.886;8.728;2022-12-07T17:43:07;3.50;99.90
2867;DHT22;1441;48.886;8.728;2022-12-07T17:45:32;3.60;99.90
2867;DHT22;1441;48.886;8.728;2022-12-07T17:47:58;3.60;99.90
2867;DHT22;1441;48.886;8.728;2022-12-07T17:50:23;3.60;99.90
2867;DHT22;1441;48.886;8.728;2022-12-07T17:53:11;3.50;99.90
2867;DHT22;1441;48.886;8.728;2022-12-07T17:55:37;3.50;99.90
2867;DHT22;1441;48.886;8.728;2022-12-07T17:58:03;3.60;99.90
2867;DHT22;1441;48.886;8.728;2022-12-07T18:00:28;3.60;99.90
2867;DHT22;1441;48.886;8.728;2022-12-07T18:02:54;3.60;99.90
2867;DHT22;1441;48.886;8.728;2022-12-07T18:05:20;3.60;99.90
2867;DHT22;1441;48.886;8.728;2022-12-07T18:07:46;3.60;99.90
2867;DHT22;1441;48.886;8.728;2022-12-07T18:10:11;3.60;99.90
2867;DHT22;1441;48.886;8.728;2022-12-07T18:12:38;3.60;99.90
2867;DHT22;1441;48.886;8.728;2022-12-07T18:15:05;3.60;99.90
2867;DHT22;1441;48.886;8.728;2022-12-07T18:17:31;3.50;99.90
2867;DHT22;1441;48.886;8.728;2022-12-07T18:19:56;3.50;99.90
2867;DHT22;1441;48.886;8.728;2022-12-07T18:22:22;3.50;99.90
2867;DHT22;1441;48.886;8.728;2022-12-07T18:24:48;3.40;99.90
2867;DHT22;1441;48.886;8.728;2022-12-07T18:27:13;3.50;99.90
2867;DHT22;1441;48.886;8.728;2022-12-07T18:29:39;3.50;99.90
2867;DHT22;1441;48.886;8.728;2022-12-07T18:32:05;3.50;99.90